Sullivan, Illinois
Current Conditions -  °F | °C
As of 10:53 AM on Friday 31 Oct 2014 (Local Time) from KMTO Reporting Station
Broken Clouds Broken Clouds  
Wind Chill: 27°   Ceiling: 7000
Heat Index: 39°   Visibility: 10mi
Dew Point: 27°   Wind: 30mph
Humidity: 62%   Direction: 340°NNW
Pressure: 30.15"   Gusts: 39mph
Location:  39.6°N, 88.61°W
Report Text: KMTO 311553Z AUTO 34026G34KT 10SM SCT027 BKN070 04/M03 A3015 RMK AO2 PK WND 34035/1459 SLP211 T00391028
Loading
Personal Weather Stations






























Interactive Weather Map
Tropical Storm Tracking
New forecast layout! Learn more

10-Day Weather Forecast

Advertisements
Track Severe Weather on mobile